Time,TemperatureF,DewpointF,PressureIn,WindDirection,WindDirectionDegrees,WindSpeedMPH,WindSpeedGustMPH,Humidity,HourlyPrecipIn,Conditions,Clouds,dailyrainin,SoftwareType,DateUTC
2013-07-13 00:00:00,70.0,68.0,-100.00,East,87,7.0,17.0,95,0.00,,,-99.99,,2013-07-13 04:00:00,
2013-07-13 00:32:00,70.0,68.0,-100.00,East,87,7.0,17.0,95,0.00,,,-99.99,,2013-07-13 04:32:00,
2013-07-13 00:44:00,70.0,68.0,-100.00,East,87,7.0,17.0,95,0.00,,,-99.99,,2013-07-13 04:44:00,
2013-07-13 00:52:00,70.0,68.0,-100.00,East,87,7.0,17.0,95,0.00,,,-99.99,,2013-07-13 04:52:00,
2013-07-13 01:00:00,70.0,69.0,-100.00,NE,56,5.0,18.0,95,0.00,,,-99.99,,2013-07-13 05:00:00,
2013-07-13 01:42:00,70.0,69.0,-100.00,NE,56,5.0,18.0,95,0.00,,,-99.99,,2013-07-13 05:42:00,
2013-07-13 01:52:00,70.0,69.0,-100.00,NE,56,5.0,18.0,95,0.00,,,-99.99,,2013-07-13 05:52:00,
2013-07-13 02:32:00,71.0,69.0,-100.00,East,101,1.0,16.0,96,0.00,,,-99.99,,2013-07-13 06:32:00,
2013-07-13 02:43:00,71.0,69.0,-100.00,East,101,1.0,16.0,96,0.00,,,-99.99,,2013-07-13 06:43:00,
2013-07-13 03:00:00,71.0,70.0,-100.00,ESE,112,0.0,8.0,96,0.00,,,-99.99,,2013-07-13 07:00:00,
2013-07-13 03:33:00,71.0,70.0,-100.00,ESE,112,0.0,8.0,96,0.00,,,-99.99,,2013-07-13 07:33:00,
2013-07-13 03:44:00,71.0,70.0,-100.00,ESE,112,0.0,8.0,96,0.00,,,-99.99,,2013-07-13 07:44:00,
2013-07-13 03:53:00,71.0,70.0,-100.00,ESE,112,0.0,8.0,96,0.00,,,-99.99,,2013-07-13 07:53:00,
2013-07-13 04:00:00,70.0,69.0,-100.00,ESE,110,0.0,5.0,96,0.00,,,-99.99,,2013-07-13 08:00:00,
2013-07-13 04:33:00,70.0,69.0,-100.00,ESE,110,0.0,5.0,96,0.00,,,-99.99,,2013-07-13 08:33:00,
2013-07-13 04:43:00,70.0,69.0,-100.00,ESE,110,0.0,5.0,96,0.00,,,-99.99,,2013-07-13 08:43:00,
2013-07-13 04:52:00,70.0,69.0,-100.00,ESE,110,0.0,5.0,96,0.00,,,-99.99,,2013-07-13 08:52:00,
2013-07-13 05:00:00,70.0,69.0,-100.00,East,79,3.0,4.0,97,0.00,,,-99.99,,2013-07-13 09:00:00,
2013-07-13 05:33:00,70.0,69.0,-100.00,East,79,3.0,4.0,97,0.00,,,-99.99,,2013-07-13 09:33:00,
2013-07-13 05:43:00,70.0,69.0,-100.00,East,79,3.0,4.0,97,0.00,,,-99.99,,2013-07-13 09:43:00,
2013-07-13 05:53:00,70.0,69.0,-100.00,East,79,3.0,4.0,97,0.00,,,-99.99,,2013-07-13 09:53:00,
2013-07-13 06:00:00,71.0,70.0,-100.00,East,99,0.0,5.0,97,0.00,,,-99.99,,2013-07-13 10:00:00,
2013-07-13 10:00:00,76.0,73.0,-100.00,ESE,118,0.0,6.0,88,0.03,,,-99.99,,2013-07-13 14:00:00,
2013-07-13 10:33:00,76.0,73.0,-100.00,ESE,118,0.0,6.0,88,0.03,,,-99.99,,2013-07-13 14:33:00,
2013-07-13 10:44:00,76.0,73.0,-100.00,ESE,118,0.0,6.0,88,0.03,,,-99.99,,2013-07-13 14:44:00,
2013-07-13 10:53:00,76.0,73.0,-100.00,ESE,118,0.0,6.0,88,0.03,,,-99.99,,2013-07-13 14:53:00,
2013-07-13 11:00:00,77.0,73.0,-100.00,ESE,117,1.0,7.0,89,0.01,,,-99.99,,2013-07-13 15:00:00,
2013-07-13 11:33:00,77.0,73.0,-100.00,ESE,117,1.0,7.0,89,0.01,,,-99.99,,2013-07-13 15:33:00,
2013-07-13 11:43:00,77.0,73.0,-100.00,ESE,117,1.0,7.0,89,0.01,,,-99.99,,2013-07-13 15:43:00,
2013-07-13 11:53:00,77.0,73.0,-100.00,ESE,117,1.0,7.0,89,0.01,,,-99.99,,2013-07-13 15:53:00,
2013-07-13 12:00:00,79.0,73.0,-100.00,ENE,69,1.0,9.0,82,0.00,,,-99.99,,2013-07-13 16:00:00,
2013-07-13 12:33:00,79.0,73.0,-100.00,ENE,69,1.0,9.0,82,0.00,,,-99.99,,2013-07-13 16:33:00,
2013-07-13 12:43:00,79.0,73.0,-100.00,ENE,69,1.0,9.0,82,0.00,,,-99.99,,2013-07-13 16:43:00,
2013-07-13 12:53:00,79.0,73.0,-100.00,ENE,69,1.0,9.0,82,0.00,,,-99.99,,2013-07-13 16:53:00,
2013-07-13 13:00:00,81.0,75.0,-100.00,ESE,116,5.0,11.0,82,0.00,,,-99.99,,2013-07-13 17:00:00,
2013-07-13 13:33:00,81.0,75.0,-100.00,ESE,116,5.0,11.0,82,0.00,,,-99.99,,2013-07-13 17:33:00,
2013-07-13 13:43:00,81.0,75.0,-100.00,ESE,116,5.0,11.0,82,0.00,,,-99.99,,2013-07-13 17:43:00,
2013-07-13 13:52:00,81.0,75.0,-100.00,ESE,116,5.0,11.0,82,0.00,,,-99.99,,2013-07-13 17:52:00,
2013-07-13 14:00:00,80.0,74.0,-100.00,ESE,107,5.0,14.0,81,0.00,,,-99.99,,2013-07-13 18:00:00,
2013-07-13 14:32:00,80.0,74.0,-100.00,ESE,107,5.0,14.0,81,0.00,,,-99.99,,2013-07-13 18:32:00,
2013-07-13 14:44:00,80.0,74.0,-100.00,ESE,107,5.0,14.0,81,0.00,,,-99.99,,2013-07-13 18:44:00,
2013-07-13 14:53:00,80.0,74.0,-100.00,ESE,107,5.0,14.0,81,0.00,,,-99.99,,2013-07-13 18:53:00,
2013-07-13 15:00:00,82.0,74.0,-100.00,ESE,102,6.0,13.0,76,0.00,,,-99.99,,2013-07-13 19:00:00,
2013-07-13 15:32:00,82.0,74.0,-100.00,ESE,102,6.0,13.0,76,0.00,,,-99.99,,2013-07-13 19:32:00,
2013-07-13 15:44:00,82.0,74.0,-100.00,ESE,102,6.0,13.0,76,0.00,,,-99.99,,2013-07-13 19:44:00,
2013-07-13 15:52:00,82.0,74.0,-100.00,ESE,102,6.0,13.0,76,0.00,,,-99.99,,2013-07-13 19:52:00,
2013-07-13 16:00:00,82.0,73.0,-100.00,SE,128,5.0,11.0,74,0.00,,,-99.99,,2013-07-13 20:00:00,
2013-07-13 16:33:00,82.0,73.0,-100.00,SE,128,5.0,11.0,74,0.00,,,-99.99,,2013-07-13 20:33:00,
2013-07-13 16:43:00,82.0,73.0,-100.00,SE,128,5.0,11.0,74,0.00,,,-99.99,,2013-07-13 20:43:00,
2013-07-13 16:53:00,82.0,73.0,-100.00,SE,128,5.0,11.0,74,0.00,,,-99.99,,2013-07-13 20:53:00,
2013-07-13 17:00:00,81.0,73.0,-100.00,SSE,156,5.0,15.0,75,0.00,,,-99.99,,2013-07-13 21:00:00,
2013-07-13 17:32:00,81.0,73.0,-100.00,SSE,156,5.0,15.0,75,0.00,,,-99.99,,2013-07-13 21:32:00,
2013-07-13 17:43:00,81.0,73.0,-100.00,SSE,156,5.0,15.0,75,0.00,,,-99.99,,2013-07-13 21:43:00,
2013-07-13 17:53:00,81.0,73.0,-100.00,SSE,156,5.0,15.0,75,0.00,,,-99.99,,2013-07-13 21:53:00,
2013-07-13 18:00:00,77.0,72.0,-100.00,South,182,4.0,14.0,85,0.00,,,-99.99,,2013-07-13 22:00:00,
2013-07-13 18:32:00,77.0,72.0,-100.00,South,182,4.0,14.0,85,0.00,,,-99.99,,2013-07-13 22:32:00,
2013-07-13 18:43:00,77.0,72.0,-100.00,South,182,4.0,14.0,85,0.00,,,-99.99,,2013-07-13 22:43:00,
2013-07-13 18:53:00,77.0,72.0,-100.00,South,182,4.0,14.0,85,0.00,,,-99.99,,2013-07-13 22:53:00,
2013-07-13 19:00:00,75.0,71.0,-100.00,SE,145,2.0,8.0,88,0.00,,,-99.99,,2013-07-13 23:00:00,
2013-07-13 19:32:00,75.0,71.0,-100.00,SE,145,2.0,8.0,88,0.00,,,-99.99,,2013-07-13 23:32:00,
2013-07-13 19:42:00,75.0,71.0,-100.00,SE,145,2.0,8.0,88,0.00,,,-99.99,,2013-07-13 23:42:00,
2013-07-13 19:53:00,75.0,71.0,-100.00,SE,145,2.0,8.0,88,0.00,,,-99.99,,2013-07-13 23:53:00,
2013-07-13 20:00:00,75.0,71.0,-100.00,SSE,166,0.0,5.0,89,0.00,,,-99.99,,2013-07-14 00:00:00,
2013-07-13 20:33:00,75.0,71.0,-100.00,SSE,166,0.0,5.0,89,0.00,,,-99.99,,2013-07-14 00:33:00,
2013-07-13 20:42:00,75.0,71.0,-100.00,SSE,166,0.0,5.0,89,0.00,,,-99.99,,2013-07-14 00:42:00,
2013-07-13 20:53:00,75.0,71.0,-100.00,SSE,166,0.0,5.0,89,0.00,,,-99.99,,2013-07-14 00:53:00,
2013-07-13 21:00:00,75.0,72.0,-100.00,ESE,110,0.0,5.0,90,0.00,,,-99.99,,2013-07-14 01:00:00,
2013-07-13 21:32:00,75.0,72.0,-100.00,ESE,110,0.0,5.0,90,0.00,,,-99.99,,2013-07-14 01:32:00,
2013-07-13 21:43:00,75.0,72.0,-100.00,ESE,110,0.0,5.0,90,0.00,,,-99.99,,2013-07-14 01:43:00,
2013-07-13 21:52:00,75.0,72.0,-100.00,ESE,110,0.0,5.0,90,0.00,,,-99.99,,2013-07-14 01:52:00,
2013-07-13 22:00:00,74.0,72.0,-100.00,SW,230,0.0,3.0,92,0.00,,,-99.99,,2013-07-14 02:00:00,
2013-07-13 22:32:00,74.0,72.0,-100.00,SW,230,0.0,3.0,92,0.00,,,-99.99,,2013-07-14 02:32:00,
2013-07-13 22:43:00,74.0,72.0,-100.00,SW,230,0.0,3.0,92,0.00,,,-99.99,,2013-07-14 02:43:00,
2013-07-13 22:53:00,74.0,72.0,-100.00,SW,230,0.0,3.0,92,0.00,,,-99.99,,2013-07-14 02:53:00,
2013-07-13 23:00:00,73.0,71.0,-100.00,SSE,155,0.0,2.0,94,0.00,,,-99.99,,2013-07-14 03:00:00,
2013-07-13 23:32:00,73.0,71.0,-100.00,SSE,155,0.0,2.0,94,0.00,,,-99.99,,2013-07-14 03:32:00,
2013-07-13 23:43:00,73.0,71.0,-100.00,SSE,155,0.0,2.0,94,0.00,,,-99.99,,2013-07-14 03:43:00,
2013-07-13 23:53:00,73.0,71.0,-100.00,SSE,155,0.0,2.0,94,0.00,,,-99.99,,2013-07-14 03:53:00,